createdAt,value
2022-11-20T00:02:38.721Z,27.38
2022-11-20T00:05:40.775Z,30.25
2022-11-20T00:08:43.289Z,26.42
2022-11-20T00:11:45.358Z,27.85
2022-11-20T00:14:47.288Z,27.45
2022-11-20T00:17:49.347Z,26.58
2022-11-20T00:20:51.531Z,26.73
2022-11-20T00:23:55.563Z,25.58
2022-11-20T00:26:57.524Z,27.55
2022-11-20T00:29:59.667Z,25.27
2022-11-20T00:33:01.662Z,25.10
2022-11-20T00:36:09.264Z,25.30
2022-11-20T00:39:11.230Z,23.35
2022-11-20T00:42:13.322Z,23.90
2022-11-20T00:45:15.379Z,25.30
2022-11-20T00:48:17.497Z,24.80
2022-11-20T00:51:22.256Z,23.08
2022-11-20T00:54:24.726Z,23.13
2022-11-20T01:00:28.580Z,20.88
2022-11-20T01:03:33.417Z,20.77
2022-11-20T01:06:37.880Z,21.30
2022-11-20T01:09:39.941Z,20.88
2022-11-20T01:12:41.954Z,19.90
2022-11-20T01:15:44.035Z,22.88
2022-11-20T01:18:48.283Z,25.55
2022-11-20T01:21:53.878Z,24.25
2022-11-20T01:24:55.903Z,19.27
2022-11-20T01:27:57.982Z,20.13
2022-11-20T01:31:00.519Z,18.23
2022-11-20T01:37:07.867Z,18.27
2022-11-20T01:43:22.089Z,15.85
2022-11-20T01:46:24.301Z,17.43
2022-11-20T01:49:34.761Z,17.73
2022-11-20T01:52:43.772Z,17.52
2022-11-20T01:55:51.989Z,16.00
2022-11-20T01:58:59.316Z,16.98
2022-11-20T02:02:01.330Z,17.40
2022-11-20T02:05:31.210Z,17.08
2022-11-20T02:08:34.219Z,16.42
2022-11-20T02:11:36.239Z,15.38
2022-11-20T02:14:38.239Z,16.95
2022-11-20T02:17:40.365Z,15.43
2022-11-20T02:20:45.806Z,15.13
2022-11-20T02:24:16.077Z,15.07
2022-11-20T02:27:18.967Z,15.25
2022-11-20T02:30:21.099Z,15.52
2022-11-20T02:33:23.113Z,16.30
2022-11-20T02:36:27.677Z,15.23
2022-11-20T02:39:30.271Z,15.85
2022-11-20T02:42:32.323Z,16.92
2022-11-20T02:45:34.590Z,17.60
2022-11-20T02:48:36.808Z,18.58
2022-11-20T02:51:38.921Z,17.95
2022-11-20T02:54:40.922Z,16.95
2022-11-20T02:57:42.964Z,16.27
2022-11-20T03:00:45.049Z,16.23
2022-11-20T03:03:49.492Z,15.18
2022-11-20T03:06:51.504Z,17.73
2022-11-20T03:09:53.534Z,16.40
2022-11-20T03:12:56.639Z,16.45
2022-11-20T03:15:58.735Z,17.33
2022-11-20T03:19:01.264Z,17.73
2022-11-20T03:22:04.061Z,16.33
2022-11-20T03:25:06.381Z,16.45
2022-11-20T03:28:08.405Z,16.90
2022-11-20T03:31:13.949Z,12.30
2022-11-20T03:34:16.013Z,15.93
2022-11-20T03:37:17.971Z,15.82
2022-11-20T03:40:20.291Z,15.65
2022-11-20T03:43:22.527Z,16.20
2022-11-20T03:46:25.097Z,15.55
2022-11-20T03:52:28.912Z,15.95
2022-11-20T03:55:30.898Z,18.92
2022-11-20T03:58:35.544Z,20.08
2022-11-20T04:01:38.695Z,19.33
2022-11-20T04:04:40.729Z,19.58
2022-11-20T04:07:42.836Z,15.27
2022-11-20T04:10:44.908Z,18.17
2022-11-20T04:13:49.540Z,19.25
2022-11-20T04:16:51.544Z,18.98
2022-11-20T04:19:53.595Z,20.27
2022-11-20T04:22:55.832Z,19.13
2022-11-20T04:26:12.219Z,17.60
2022-11-20T04:29:14.348Z,20.70
2022-11-20T04:32:16.284Z,20.95
2022-11-20T04:35:18.237Z,21.58
2022-11-20T04:38:20.669Z,31.55
2022-11-20T04:41:24.702Z,25.58
2022-11-20T04:44:26.677Z,25.50
2022-11-20T04:47:28.782Z,20.45
2022-11-20T04:50:30.890Z,20.33
2022-11-20T04:53:33.529Z,20.85
2022-11-20T04:56:35.613Z,19.73
2022-11-20T04:59:37.745Z,21.85
2022-11-20T05:02:40.082Z,22.13
2022-11-20T05:05:42.114Z,21.58
2022-11-20T05:08:44.335Z,21.45
2022-11-20T05:11:50.412Z,21.75
2022-11-20T05:14:53.743Z,21.33
2022-11-20T05:17:55.879Z,20.73
2022-11-20T05:20:59.212Z,22.42
2022-11-20T05:24:01.182Z,22.10
2022-11-20T05:27:03.271Z,21.00
2022-11-20T05:30:06.350Z,22.77
2022-11-20T05:33:09.206Z,24.05
2022-11-20T05:36:13.006Z,22.85
2022-11-20T05:39:15.192Z,22.80
2022-11-20T05:42:32.390Z,21.48
2022-11-20T05:45:34.401Z,22.08
2022-11-20T05:48:37.722Z,21.60
2022-11-20T05:51:39.698Z,22.83
2022-11-20T05:54:41.679Z,24.33
2022-11-20T05:57:43.719Z,24.02
2022-11-20T06:00:45.716Z,25.38
2022-11-20T06:03:48.799Z,28.40
2022-11-20T06:06:50.890Z,26.40
2022-11-20T06:09:52.837Z,26.95
2022-11-20T06:12:54.868Z,25.17
2022-11-20T06:15:57.963Z,26.85
2022-11-20T06:19:00.103Z,26.05
2022-11-20T06:22:02.195Z,26.15
2022-11-20T06:25:04.386Z,26.63
2022-11-20T06:28:06.530Z,25.92
2022-11-20T06:31:11.346Z,27.83
2022-11-20T06:34:13.637Z,27.80
2022-11-20T06:37:15.736Z,27.08
2022-11-20T06:40:17.950Z,26.77
2022-11-20T06:43:20.013Z,27.10
2022-11-20T06:46:22.374Z,25.55
2022-11-20T06:52:26.982Z,26.25
2022-11-20T06:55:28.929Z,29.80
2022-11-20T06:58:33.233Z,28.98
2022-11-20T07:01:36.062Z,28.33
2022-11-20T07:04:38.093Z,29.17
2022-11-20T07:07:43.495Z,28.13
2022-11-20T07:10:45.673Z,30.95
2022-11-20T07:13:47.791Z,28.40
2022-11-20T07:16:50.015Z,27.65
2022-11-20T07:19:52.237Z,27.75
2022-11-20T07:22:55.939Z,29.65
2022-11-20T07:25:58.048Z,27.70
2022-11-20T07:29:00.110Z,27.63
2022-11-20T07:32:02.479Z,28.90
2022-11-20T07:35:04.813Z,29.13
2022-11-20T07:38:06.819Z,27.23
2022-11-20T07:41:08.860Z,28.58
2022-11-20T07:44:10.802Z,27.38
2022-11-20T07:47:12.832Z,28.95
2022-11-20T07:50:15.739Z,29.45
2022-11-20T07:53:21.760Z,28.55
2022-11-20T07:56:23.723Z,28.42
2022-11-20T07:59:25.780Z,29.40
2022-11-20T08:02:27.902Z,27.83
2022-11-20T08:05:29.916Z,27.75
2022-11-20T08:08:33.791Z,28.95
2022-11-20T08:11:54.954Z,30.42
2022-11-20T08:14:59.889Z,30.55
2022-11-20T08:21:38.155Z,29.90
2022-11-20T08:24:40.563Z,28.33
2022-11-20T08:27:42.520Z,23.50
2022-11-20T08:30:44.609Z,28.40
2022-11-20T08:33:46.596Z,27.35
2022-11-20T08:36:48.616Z,28.70
2022-11-20T08:39:50.604Z,28.52
2022-11-20T08:42:52.596Z,28.63
2022-11-20T08:45:57.078Z,27.75
2022-11-20T08:48:59.596Z,27.38
2022-11-20T08:52:01.687Z,29.70
2022-11-20T08:55:05.210Z,26.17
2022-11-20T08:58:07.899Z,27.33
2022-11-20T09:01:10.578Z,28.05
2022-11-20T09:04:14.585Z,28.35
2022-11-20T09:07:16.700Z,27.63
2022-11-20T09:10:25.809Z,27.83
2022-11-20T09:13:29.548Z,26.45
2022-11-20T09:16:31.582Z,25.90
2022-11-20T09:19:36.035Z,26.17
2022-11-20T09:22:41.826Z,24.85
2022-11-20T09:25:44.351Z,26.73
2022-11-20T09:28:46.721Z,25.42
2022-11-20T09:31:48.727Z,25.08
2022-11-20T09:34:50.763Z,23.63
2022-11-20T09:37:52.805Z,26.13
2022-11-20T09:41:03.991Z,24.83
2022-11-20T09:44:09.069Z,24.55
2022-11-20T09:47:39.030Z,25.52
2022-11-20T09:50:50.978Z,24.30
2022-11-20T09:54:13.886Z,24.25
2022-11-20T10:00:22.314Z,23.23
2022-11-20T10:03:55.427Z,23.75
2022-11-20T10:10:34.168Z,25.85
2022-11-20T10:13:56.669Z,26.98
2022-11-20T10:17:35.670Z,28.55
2022-11-20T10:21:11.788Z,28.27
2022-11-20T10:24:38.931Z,30.10
2022-11-20T10:27:43.749Z,25.15
2022-11-20T10:30:51.397Z,22.17
2022-11-20T10:34:11.598Z,23.05
2022-11-20T10:37:27.071Z,24.40
2022-11-20T10:40:38.196Z,22.45
2022-11-20T10:43:40.171Z,23.15
2022-11-20T10:46:45.294Z,26.08
2022-11-20T10:49:56.822Z,25.25
2022-11-20T10:53:19.828Z,25.38
2022-11-20T10:56:49.481Z,22.63
2022-11-20T11:00:06.622Z,21.15
2022-11-20T11:03:24.088Z,22.85
2022-11-20T11:06:35.539Z,22.33
2022-11-20T11:09:43.903Z,24.45
2022-11-20T11:12:49.382Z,24.83
2022-11-20T11:15:52.243Z,25.88
2022-11-20T11:19:12.714Z,23.77
2022-11-20T11:22:19.566Z,20.42
2022-11-20T11:25:34.618Z,20.42
2022-11-20T11:28:36.830Z,21.70
2022-11-20T11:31:39.190Z,23.15
2022-11-20T11:34:41.725Z,24.17
2022-11-20T11:37:43.999Z,24.33
2022-11-20T11:40:48.271Z,23.30
2022-11-20T11:44:14.867Z,24.40
2022-11-20T11:47:26.334Z,22.08
2022-11-20T11:50:30.618Z,24.65
2022-11-20T11:53:42.501Z,22.95
2022-11-20T11:56:46.013Z,22.93
2022-11-20T12:00:12.473Z,23.17
2022-11-20T12:03:28.201Z,23.60
2022-11-20T12:06:32.595Z,23.23
2022-11-20T12:09:49.160Z,24.23
2022-11-20T12:12:57.407Z,24.38
2022-11-20T12:15:59.898Z,24.35
2022-11-20T12:19:02.409Z,23.00
2022-11-20T12:22:13.817Z,25.05
2022-11-20T12:25:30.193Z,23.27
2022-11-20T12:29:19.719Z,23.35
2022-11-20T12:32:21.711Z,23.67
2022-11-20T12:35:54.373Z,24.35
2022-11-20T12:39:24.126Z,17.83
2022-11-20T12:43:24.631Z,22.10
2022-11-20T12:46:32.933Z,24.58
2022-11-20T12:49:35.347Z,24.70
2022-11-20T12:52:48.287Z,23.00
2022-11-20T12:56:12.509Z,23.27
2022-11-20T12:59:32.506Z,25.63
2022-11-20T13:03:02.733Z,22.23
2022-11-20T13:06:18.340Z,25.08
2022-11-20T13:09:23.608Z,23.42
2022-11-20T13:12:38.044Z,22.77
2022-11-20T13:15:55.454Z,21.85
2022-11-20T13:19:02.186Z,22.35
2022-11-20T13:22:04.440Z,19.85
2022-11-20T13:25:16.210Z,21.77
2022-11-20T13:28:18.851Z,23.13
2022-11-20T13:31:32.941Z,21.05
2022-11-20T13:34:37.646Z,23.38
2022-11-20T13:37:40.277Z,23.25
2022-11-20T13:44:25.110Z,20.42
2022-11-20T13:47:29.957Z,21.40
2022-11-20T13:50:51.958Z,22.15
2022-11-20T13:54:19.444Z,20.38
2022-11-20T13:57:51.968Z,19.08
2022-11-20T14:01:10.882Z,16.45
2022-11-20T14:04:19.734Z,20.65
2022-11-20T14:07:33.731Z,21.02
2022-11-20T14:10:36.437Z,18.88
2022-11-20T14:16:42.617Z,18.20
2022-11-20T14:19:48.075Z,19.98
2022-11-20T14:22:52.108Z,20.95
2022-11-20T14:25:54.959Z,20.63
2022-11-20T14:28:57.809Z,21.73
2022-11-20T14:32:00.715Z,19.60
2022-11-20T14:35:14.580Z,20.25
2022-11-20T14:38:19.958Z,21.63
2022-11-20T14:41:24.641Z,20.05
2022-11-20T14:44:35.433Z,20.00
2022-11-20T14:47:37.840Z,21.48
2022-11-20T14:50:41.062Z,19.95
2022-11-20T14:53:43.244Z,19.35
2022-11-20T14:57:05.008Z,17.40
2022-11-20T15:00:16.201Z,19.63
2022-11-20T15:03:19.384Z,20.15
2022-11-20T15:06:28.093Z,18.67
2022-11-20T15:09:30.635Z,19.15
2022-11-20T15:12:35.860Z,17.67
2022-11-20T15:15:55.736Z,18.75
2022-11-20T15:18:58.678Z,16.30
2022-11-20T15:22:01.634Z,19.05
2022-11-20T15:25:16.290Z,16.90
2022-11-20T15:28:30.825Z,17.77
2022-11-20T15:31:33.200Z,17.52
2022-11-20T15:34:35.946Z,16.02
2022-11-20T15:37:39.523Z,16.83
2022-11-20T15:40:42.371Z,16.67
2022-11-20T15:43:45.230Z,19.58
2022-11-20T15:46:47.849Z,16.73
2022-11-20T15:49:50.332Z,17.48
2022-11-20T15:52:53.884Z,18.40
2022-11-20T15:55:56.438Z,23.40
2022-11-20T16:02:00.904Z,17.77
2022-11-20T16:08:11.863Z,15.70
2022-11-20T16:11:16.641Z,18.27
2022-11-20T16:14:37.541Z,18.17
2022-11-20T16:17:46.678Z,18.95
2022-11-20T16:20:51.746Z,19.83
2022-11-20T16:23:54.248Z,19.83
2022-11-20T16:30:00.123Z,21.23
2022-11-20T16:33:04.241Z,20.77
2022-11-20T16:36:14.878Z,17.60
2022-11-20T16:39:23.061Z,15.00
2022-11-20T16:42:26.310Z,16.17
2022-11-20T16:45:33.610Z,16.15
2022-11-20T16:48:36.539Z,15.65
2022-11-20T16:51:39.256Z,18.10
2022-11-20T16:54:42.162Z,18.35
2022-11-20T16:57:45.713Z,18.98
2022-11-20T17:00:51.591Z,20.00
2022-11-20T17:04:03.953Z,17.65
2022-11-20T17:07:08.132Z,18.45
2022-11-20T17:10:11.346Z,18.45
2022-11-20T17:13:14.006Z,19.75
2022-11-20T17:16:22.692Z,17.58
2022-11-20T17:19:25.186Z,22.40
2022-11-20T17:25:36.518Z,18.15
2022-11-20T17:28:39.850Z,20.25
2022-11-20T17:31:43.530Z,17.33
2022-11-20T17:34:46.036Z,16.52
2022-11-20T17:40:51.573Z,16.35
2022-11-20T17:43:55.926Z,20.58
2022-11-20T17:46:59.330Z,32.72
2022-11-20T17:50:02.531Z,19.13
2022-11-20T17:53:05.927Z,19.48
2022-11-20T17:56:27.651Z,24.60
2022-11-20T17:59:30.150Z,22.75
2022-11-20T18:05:34.910Z,16.92
2022-11-20T18:11:41.677Z,20.17
2022-11-20T18:14:44.171Z,16.13
2022-11-20T18:20:54.061Z,16.95
2022-11-20T18:23:56.941Z,19.33
2022-11-20T18:26:59.994Z,19.35
2022-11-20T18:30:02.726Z,18.00
2022-11-20T18:33:06.590Z,17.98
2022-11-20T18:36:11.212Z,19.35
2022-11-20T18:39:15.340Z,19.20
2022-11-20T18:42:39.192Z,20.00
2022-11-20T18:45:41.766Z,19.55
2022-11-20T18:48:44.762Z,17.90
2022-11-20T18:51:49.657Z,21.65
2022-11-20T18:54:53.154Z,20.50
2022-11-20T18:57:56.001Z,19.85
2022-11-20T19:01:06.899Z,17.42
2022-11-20T19:04:15.495Z,17.50
2022-11-20T19:07:17.682Z,20.63
2022-11-20T19:10:20.402Z,21.75
2022-11-20T19:13:23.178Z,22.23
2022-11-20T19:16:27.077Z,24.48
2022-11-20T19:19:29.863Z,19.95
2022-11-20T19:22:32.299Z,22.48
2022-11-20T19:28:41.453Z,19.83
2022-11-20T19:31:44.221Z,19.40
2022-11-20T19:34:47.093Z,19.27
2022-11-20T19:37:50.283Z,19.55
2022-11-20T19:40:53.016Z,19.95
2022-11-20T19:44:05.398Z,19.15
2022-11-20T19:47:13.996Z,18.90
2022-11-20T19:50:18.538Z,23.98
2022-11-20T19:53:21.797Z,19.45
2022-11-20T19:56:25.464Z,19.17
2022-11-20T19:59:28.745Z,18.02
2022-11-20T20:02:31.160Z,19.60
2022-11-20T20:05:35.361Z,18.27
2022-11-20T20:08:39.400Z,19.35
2022-11-20T20:11:46.398Z,20.67
2022-11-20T20:14:48.509Z,20.83
2022-11-20T20:17:54.452Z,19.20
2022-11-20T20:21:00.952Z,20.77
2022-11-20T20:24:06.874Z,22.65
2022-11-20T20:27:10.029Z,20.10
2022-11-20T20:30:13.833Z,21.05
2022-11-20T20:33:16.366Z,20.55
2022-11-20T20:36:20.343Z,21.80
2022-11-20T20:39:24.802Z,20.98
2022-11-20T20:42:27.522Z,21.38
2022-11-20T20:45:31.128Z,19.23
2022-11-20T20:48:33.740Z,20.23
2022-11-20T20:54:43.152Z,18.63
2022-11-20T20:57:45.993Z,20.20
2022-11-20T21:00:48.495Z,19.35
2022-11-20T21:03:51.035Z,20.38
2022-11-20T21:09:55.840Z,22.10
2022-11-20T21:12:58.006Z,21.02
2022-11-20T21:16:00.672Z,20.55
2022-11-20T21:19:03.612Z,21.35
2022-11-20T21:22:06.036Z,20.98
2022-11-20T21:28:14.378Z,19.88
2022-11-20T21:31:28.062Z,20.67
2022-11-20T21:34:33.210Z,21.25
2022-11-20T21:37:40.724Z,22.42
2022-11-20T21:40:43.026Z,21.52
2022-11-20T21:43:45.642Z,46.78
2022-11-20T21:46:47.805Z,25.77
2022-11-20T21:49:50.023Z,28.83
2022-11-20T21:52:52.897Z,23.73
2022-11-20T21:55:55.853Z,55.92
2022-11-20T21:58:58.963Z,26.55
2022-11-20T22:02:01.009Z,21.15
2022-11-20T22:05:03.280Z,20.80
2022-11-20T22:08:05.798Z,21.13
2022-11-20T22:11:10.864Z,21.10
2022-11-20T22:14:21.928Z,23.08
2022-11-20T22:17:44.255Z,24.23
2022-11-20T22:20:46.327Z,20.00
2022-11-20T22:23:48.785Z,21.33
2022-11-20T22:26:51.052Z,20.17
2022-11-20T22:29:53.058Z,31.40
2022-11-20T22:32:56.529Z,25.65
2022-11-20T22:36:03.863Z,23.55
2022-11-20T22:39:06.089Z,23.20
2022-11-20T22:42:08.278Z,25.50
2022-11-20T22:45:11.052Z,18.85
2022-11-20T22:48:14.542Z,21.40
2022-11-20T22:51:17.557Z,19.20
2022-11-20T22:54:19.576Z,17.25
2022-11-20T22:57:21.668Z,23.08
2022-11-20T23:00:23.978Z,19.42
2022-11-20T23:03:26.054Z,20.48
2022-11-20T23:06:29.342Z,18.08
2022-11-20T23:09:31.939Z,15.50
2022-11-20T23:12:33.977Z,16.30
2022-11-20T23:15:35.971Z,21.52
2022-11-20T23:18:38.404Z,20.40
2022-11-20T23:21:42.470Z,26.85
2022-11-20T23:24:44.730Z,24.50
2022-11-20T23:27:46.777Z,26.75
2022-11-20T23:30:49.272Z,24.10
2022-11-20T23:33:51.708Z,23.38
2022-11-20T23:36:53.757Z,25.02
2022-11-20T23:39:55.967Z,20.02
2022-11-20T23:43:16.346Z,20.48
2022-11-20T23:46:18.492Z,27.33
2022-11-20T23:49:20.612Z,25.00
2022-11-20T23:52:22.757Z,17.45
2022-11-20T23:55:24.741Z,21.20
2022-11-20T23:58:32.787Z,17.00
